METAR Data
IDs: Format: Raw Decoded Include TAF

Data at: 2339 UTC 26 Feb 2020

METAR for:KSPB (Scappoose Ind Airpar, OR, US)
Text:KSPB 262253Z AUTO 36004KT 10SM FEW034 FEW048 13/04 A3051 RMK AO2 SLP331 T01330044
Temperature: 13.3°C ( 56°F)
Dewpoint: 4.4°C ( 40°F) [RH = 55%]
Pressure (altimeter):30.51 inches Hg (1033.3 mb) [Sea level pressure: 1033.1 mb]
Winds:from the N (360 degrees) at 5 MPH (4 knots; 2.1 m/s)
Visibility:10 or more sm (16+ km)
Ceiling:at least 12,000 feet AGL
Clouds: few clouds at 3400 feet AGL, few clouds at 4800 feet AGL
QC Flag:automated observation with no human augmentation